sensor_id;sensor_type;location;lat;lon;timestamp;temperature;humidity
18305;DHT22;9278;52.156;21.048;2022-12-15T00:02:38;-3.20;1.00
18305;DHT22;9278;52.156;21.048;2022-12-15T00:11:02;-3.30;99.90
18305;DHT22;9278;52.156;21.048;2022-12-15T00:16:36;-3.20;1.00
18305;DHT22;9278;52.156;21.048;2022-12-15T00:30:26;-3.20;1.00
18305;DHT22;9278;52.156;21.048;2022-12-15T00:33:17;-3.20;99.90
18305;DHT22;9278;52.156;21.048;2022-12-15T00:41:18;-3.00;99.90
18305;DHT22;9278;52.156;21.048;2022-12-15T00:43:46;-3.30;99.90
18305;DHT22;9278;52.156;21.048;2022-12-15T00:49:02;-1.60;99.90
18305;DHT22;9278;52.156;21.048;2022-12-15T01:00:09;-3.00;99.90
18305;DHT22;9278;52.156;21.048;2022-12-15T01:05:43;-3.20;99.90
18305;DHT22;9278;52.156;21.048;2022-12-15T01:11:16;-3.10;99.90
18305;DHT22;9278;52.156;21.048;2022-12-15T01:19:34;-3.40;1.00
18305;DHT22;9278;52.156;21.048;2022-12-15T01:22:22;-3.20;99.90
18305;DHT22;9278;52.156;21.048;2022-12-15T01:39:42;-2.60;99.90
18305;DHT22;9278;52.156;21.048;2022-12-15T01:48:02;-2.70;1.00
18305;DHT22;9278;52.156;21.048;2022-12-15T01:50:34;-2.80;1.00
18305;DHT22;9278;52.156;21.048;2022-12-15T01:55:34;-2.70;99.90
18305;DHT22;9278;52.156;21.048;2022-12-15T01:58:06;-2.70;1.00
18305;DHT22;9278;52.156;21.048;2022-12-15T02:03:05;-2.60;99.90
18305;DHT22;9278;52.156;21.048;2022-12-15T02:08:03;-2.70;99.90
18305;DHT22;9278;52.156;21.048;2022-12-15T02:10:43;-2.70;99.90
18305;DHT22;9278;52.156;21.048;2022-12-15T02:13:18;-3.20;99.90
18305;DHT22;9278;52.156;21.048;2022-12-15T02:15:54;-3.00;99.90
18305;DHT22;9278;52.156;21.048;2022-12-15T02:18:31;-2.80;99.90
18305;DHT22;9278;52.156;21.048;2022-12-15T02:21:06;-2.70;99.90
18305;DHT22;9278;52.156;21.048;2022-12-15T02:27:28;-2.80;99.90
18305;DHT22;9278;52.156;21.048;2022-12-15T02:33:09;-2.20;1.00
18305;DHT22;9278;52.156;21.048;2022-12-15T02:35:46;-2.40;1.00
18305;DHT22;9278;52.156;21.048;2022-12-15T02:38:28;-2.80;99.90
18305;DHT22;9278;52.156;21.048;2022-12-15T02:40:58;-2.90;1.00
18305;DHT22;9278;52.156;21.048;2022-12-15T02:43:28;-2.70;1.00
18305;DHT22;9278;52.156;21.048;2022-12-15T02:46:09;-3.10;99.90
18305;DHT22;9278;52.156;21.048;2022-12-15T02:48:52;-3.00;99.90
18305;DHT22;9278;52.156;21.048;2022-12-15T02:51:37;-3.20;99.90
18305;DHT22;9278;52.156;21.048;2022-12-15T02:54:23;-2.50;99.90
18305;DHT22;9278;52.156;21.048;2022-12-15T02:57:00;-2.80;1.00
18305;DHT22;9278;52.156;21.048;2022-12-15T02:59:38;-2.60;99.90
18305;DHT22;9278;52.156;21.048;2022-12-15T03:02:12;-2.20;99.90
18305;DHT22;9278;52.156;21.048;2022-12-15T03:04:42;-2.70;99.90
18305;DHT22;9278;52.156;21.048;2022-12-15T03:07:13;-2.70;99.90
18305;DHT22;9278;52.156;21.048;2022-12-15T03:14:38;-2.40;1.00
18305;DHT22;9278;52.156;21.048;2022-12-15T03:17:06;-2.60;99.90
18305;DHT22;9278;52.156;21.048;2022-12-15T03:19:36;-2.60;99.90
18305;DHT22;9278;52.156;21.048;2022-12-15T03:22:04;-2.60;66.10
18305;DHT22;9278;52.156;21.048;2022-12-15T03:29:29;-2.20;99.90
18305;DHT22;9278;52.156;21.048;2022-12-15T03:34:26;-2.20;99.90
18305;DHT22;9278;52.156;21.048;2022-12-15T03:36:56;-2.10;1.00
18305;DHT22;9278;52.156;21.048;2022-12-15T03:39:25;-2.00;1.00
18305;DHT22;9278;52.156;21.048;2022-12-15T03:44:22;-1.80;1.00
18305;DHT22;9278;52.156;21.048;2022-12-15T03:49:18;-2.30;99.90
18305;DHT22;9278;52.156;21.048;2022-12-15T03:54:16;-2.30;99.90
18305;DHT22;9278;52.156;21.048;2022-12-15T04:01:45;-2.20;99.90
18305;DHT22;9278;52.156;21.048;2022-12-15T04:11:40;-1.90;99.90
18305;DHT22;9278;52.156;21.048;2022-12-15T04:16:38;-2.00;99.90
18305;DHT22;9278;52.156;21.048;2022-12-15T04:27:09;-2.60;99.90
18305;DHT22;9278;52.156;21.048;2022-12-15T04:32:41;-2.40;99.90
18305;DHT22;9278;52.156;21.048;2022-12-15T04:41:01;-2.00;47.80
18305;DHT22;9278;52.156;21.048;2022-12-15T04:43:48;-2.00;99.90
18305;DHT22;9278;52.156;21.048;2022-12-15T04:46:34;-1.60;1.00
18305;DHT22;9278;52.156;21.048;2022-12-15T04:49:20;-1.60;1.00
18305;DHT22;9278;52.156;21.048;2022-12-15T05:00:26;-1.80;99.90
18305;DHT22;9278;52.156;21.048;2022-12-15T05:33:42;-2.10;1.00
18305;DHT22;9278;52.156;21.048;2022-12-15T05:51:04;-2.60;99.90
18305;DHT22;9278;52.156;21.048;2022-12-15T06:01:03;-2.60;2.80
18305;DHT22;9278;52.156;21.048;2022-12-15T06:06:01;-2.90;1.00
18305;DHT22;9278;52.156;21.048;2022-12-15T06:08:32;-3.10;99.90
18305;DHT22;9278;52.156;21.048;2022-12-15T06:13:30;-2.80;99.90
18305;DHT22;9278;52.156;21.048;2022-12-15T06:16:03;-2.80;99.90
18305;DHT22;9278;52.156;21.048;2022-12-15T06:18:33;-3.20;1.00
18305;DHT22;9278;52.156;21.048;2022-12-15T06:21:04;-3.10;1.00
18305;DHT22;9278;52.156;21.048;2022-12-15T06:23:34;-2.90;1.00
18305;DHT22;9278;52.156;21.048;2022-12-15T06:26:08;-2.90;99.90
18305;DHT22;9278;52.156;21.048;2022-12-15T06:36:05;-2.90;99.90
18305;DHT22;9278;52.156;21.048;2022-12-15T06:38:36;-3.20;99.90
18305;DHT22;9278;52.156;21.048;2022-12-15T06:41:05;-3.00;99.90
18305;DHT22;9278;52.156;21.048;2022-12-15T06:51:02;-3.20;99.90
18305;DHT22;9278;52.156;21.048;2022-12-15T07:01:04;-2.40;1.00
18305;DHT22;9278;52.156;21.048;2022-12-15T07:03:34;-2.80;82.60
18305;DHT22;9278;52.156;21.048;2022-12-15T07:06:05;-2.60;1.00
18305;DHT22;9278;52.156;21.048;2022-12-15T07:11:11;-2.50;99.90
18305;DHT22;9278;52.156;21.048;2022-12-15T07:16:10;-2.90;1.00
18305;DHT22;9278;52.156;21.048;2022-12-15T07:21:08;-2.90;1.00
18305;DHT22;9278;52.156;21.048;2022-12-15T07:26:22;-3.30;1.00
18305;DHT22;9278;52.156;21.048;2022-12-15T07:28:50;-3.10;1.00
18305;DHT22;9278;52.156;21.048;2022-12-15T07:33:48;-2.60;1.00
18305;DHT22;9278;52.156;21.048;2022-12-15T07:41:18;-2.60;1.00
18305;DHT22;9278;52.156;21.048;2022-12-15T07:43:48;-2.70;1.00
18305;DHT22;9278;52.156;21.048;2022-12-15T07:46:16;-1.90;1.00
18305;DHT22;9278;52.156;21.048;2022-12-15T07:48:45;-2.80;1.00
18305;DHT22;9278;52.156;21.048;2022-12-15T07:51:18;-2.70;1.00
18305;DHT22;9278;52.156;21.048;2022-12-15T07:53:48;-2.90;1.00
18305;DHT22;9278;52.156;21.048;2022-12-15T07:56:17;-2.90;1.00
18305;DHT22;9278;52.156;21.048;2022-12-15T07:58:47;-3.60;1.00
18305;DHT22;9278;52.156;21.048;2022-12-15T08:01:16;-2.70;1.00
18305;DHT22;9278;52.156;21.048;2022-12-15T08:03:45;-2.70;1.00
18305;DHT22;9278;52.156;21.048;2022-12-15T08:06:14;-2.50;1.00
18305;DHT22;9278;52.156;21.048;2022-12-15T08:08:43;-2.20;99.90
18305;DHT22;9278;52.156;21.048;2022-12-15T08:11:18;-2.30;1.00
18305;DHT22;9278;52.156;21.048;2022-12-15T08:13:49;-2.10;1.00
18305;DHT22;9278;52.156;21.048;2022-12-15T08:16:37;-2.30;1.00
18305;DHT22;9278;52.156;21.048;2022-12-15T08:19:08;-1.90;99.90
18305;DHT22;9278;52.156;21.048;2022-12-15T08:21:38;-1.70;1.00
18305;DHT22;9278;52.156;21.048;2022-12-15T08:26:36;-1.10;1.00
18305;DHT22;9278;52.156;21.048;2022-12-15T08:29:08;-1.70;1.00
18305;DHT22;9278;52.156;21.048;2022-12-15T08:34:26;-2.10;1.00
18305;DHT22;9278;52.156;21.048;2022-12-15T08:41:51;-1.70;1.00
18305;DHT22;9278;52.156;21.048;2022-12-15T08:44:21;-2.00;1.00
18305;DHT22;9278;52.156;21.048;2022-12-15T08:49:18;-1.90;1.00
18305;DHT22;9278;52.156;21.048;2022-12-15T08:51:48;-2.30;1.00
18305;DHT22;9278;52.156;21.048;2022-12-15T08:54:18;-2.20;1.00
18305;DHT22;9278;52.156;21.048;2022-12-15T09:01:48;-2.60;1.00
18305;DHT22;9278;52.156;21.048;2022-12-15T09:04:16;-2.20;1.00
18305;DHT22;9278;52.156;21.048;2022-12-15T09:09:17;-2.50;1.00
18305;DHT22;9278;52.156;21.048;2022-12-15T09:11:45;-2.30;1.00
18305;DHT22;9278;52.156;21.048;2022-12-15T09:14:14;-2.10;1.00
18305;DHT22;9278;52.156;21.048;2022-12-15T09:16:43;-2.40;1.00
18305;DHT22;9278;52.156;21.048;2022-12-15T09:19:17;-1.90;1.00
18305;DHT22;9278;52.156;21.048;2022-12-15T09:21:46;-2.10;1.00
18305;DHT22;9278;52.156;21.048;2022-12-15T09:29:26;-2.00;1.00
18305;DHT22;9278;52.156;21.048;2022-12-15T09:31:55;-1.80;1.00
18305;DHT22;9278;52.156;21.048;2022-12-15T09:34:26;-1.60;1.00
18305;DHT22;9278;52.156;21.048;2022-12-15T09:36:57;-1.90;92.70
18305;DHT22;9278;52.156;21.048;2022-12-15T09:39:25;-1.80;1.00
18305;DHT22;9278;52.156;21.048;2022-12-15T09:41:56;-1.70;1.00
18305;DHT22;9278;52.156;21.048;2022-12-15T09:44:27;-1.50;1.00
18305;DHT22;9278;52.156;21.048;2022-12-15T09:47:09;-1.80;1.00
18305;DHT22;9278;52.156;21.048;2022-12-15T09:49:49;-1.80;1.00
18305;DHT22;9278;52.156;21.048;2022-12-15T09:52:21;-1.70;1.00
18305;DHT22;9278;52.156;21.048;2022-12-15T09:54:53;-1.60;1.00
18305;DHT22;9278;52.156;21.048;2022-12-15T09:57:26;-2.00;22.30
18305;DHT22;9278;52.156;21.048;2022-12-15T10:00:12;-1.50;1.00
18305;DHT22;9278;52.156;21.048;2022-12-15T10:03:26;-1.70;1.00
18305;DHT22;9278;52.156;21.048;2022-12-15T10:06:07;-1.60;99.90
18305;DHT22;9278;52.156;21.048;2022-12-15T10:08:49;-1.60;99.90
18305;DHT22;9278;52.156;21.048;2022-12-15T10:11:30;-1.20;99.90
18305;DHT22;9278;52.156;21.048;2022-12-15T10:14:10;-1.60;99.90
18305;DHT22;9278;52.156;21.048;2022-12-15T10:16:48;-1.50;1.00
18305;DHT22;9278;52.156;21.048;2022-12-15T10:19:23;-1.90;1.00
18305;DHT22;9278;52.156;21.048;2022-12-15T10:21:55;-1.70;99.90
18305;DHT22;9278;52.156;21.048;2022-12-15T10:24:28;-2.30;1.00
18305;DHT22;9278;52.156;21.048;2022-12-15T10:27:26;-2.00;1.00
18305;DHT22;9278;52.156;21.048;2022-12-15T10:29:59;-2.20;1.00
18305;DHT22;9278;52.156;21.048;2022-12-15T10:32:39;-1.70;1.00
18305;DHT22;9278;52.156;21.048;2022-12-15T10:35:14;-2.10;1.00
18305;DHT22;9278;52.156;21.048;2022-12-15T10:37:44;-2.00;1.00
18305;DHT22;9278;52.156;21.048;2022-12-15T10:40:18;-2.00;1.00
18305;DHT22;9278;52.156;21.048;2022-12-15T10:42:49;-2.10;1.00
18305;DHT22;9278;52.156;21.048;2022-12-15T10:45:30;-2.10;1.00
18305;DHT22;9278;52.156;21.048;2022-12-15T10:48:01;-2.40;99.90
18305;DHT22;9278;52.156;21.048;2022-12-15T10:50:33;-2.40;1.00
18305;DHT22;9278;52.156;21.048;2022-12-15T10:53:07;-2.20;1.00
18305;DHT22;9278;52.156;21.048;2022-12-15T10:55:37;-2.20;1.00
18305;DHT22;9278;52.156;21.048;2022-12-15T10:58:16;-2.50;1.00
18305;DHT22;9278;52.156;21.048;2022-12-15T11:03:21;-3.20;1.00
18305;DHT22;9278;52.156;21.048;2022-12-15T11:05:51;-2.10;1.00
18305;DHT22;9278;52.156;21.048;2022-12-15T11:08:23;-2.10;80.60
18305;DHT22;9278;52.156;21.048;2022-12-15T11:10:53;-2.20;1.00
18305;DHT22;9278;52.156;21.048;2022-12-15T11:14:04;-2.30;1.00
18305;DHT22;9278;52.156;21.048;2022-12-15T11:19:08;-2.00;1.00
18305;DHT22;9278;52.156;21.048;2022-12-15T11:21:41;-2.00;1.00
18305;DHT22;9278;52.156;21.048;2022-12-15T11:24:18;-1.80;1.00
18305;DHT22;9278;52.156;21.048;2022-12-15T11:26:55;-2.10;1.00
18305;DHT22;9278;52.156;21.048;2022-12-15T11:29:28;-2.70;1.00
18305;DHT22;9278;52.156;21.048;2022-12-15T11:34:36;-2.90;1.00
18305;DHT22;9278;52.156;21.048;2022-12-15T11:37:17;-2.60;1.00
18305;DHT22;9278;52.156;21.048;2022-12-15T11:40:03;-2.50;1.00
18305;DHT22;9278;52.156;21.048;2022-12-15T11:42:41;-2.60;99.90
18305;DHT22;9278;52.156;21.048;2022-12-15T11:45:20;-2.70;1.00
18305;DHT22;9278;52.156;21.048;2022-12-15T11:47:52;-2.20;1.00
18305;DHT22;9278;52.156;21.048;2022-12-15T11:50:28;-2.50;1.00
18305;DHT22;9278;52.156;21.048;2022-12-15T11:53:11;-2.50;1.00
18305;DHT22;9278;52.156;21.048;2022-12-15T11:55:49;-2.50;1.00
18305;DHT22;9278;52.156;21.048;2022-12-15T11:58:48;-2.70;1.00
18305;DHT22;9278;52.156;21.048;2022-12-15T12:01:29;-3.00;1.00
18305;DHT22;9278;52.156;21.048;2022-12-15T12:04:09;-3.00;1.00
18305;DHT22;9278;52.156;21.048;2022-12-15T12:06:50;-3.00;1.00
18305;DHT22;9278;52.156;21.048;2022-12-15T12:09:27;-2.90;1.00
18305;DHT22;9278;52.156;21.048;2022-12-15T12:12:03;-2.90;1.00
18305;DHT22;9278;52.156;21.048;2022-12-15T12:14:47;-2.70;1.00
18305;DHT22;9278;52.156;21.048;2022-12-15T12:17:25;-2.80;1.00
18305;DHT22;9278;52.156;21.048;2022-12-15T12:20:00;-2.90;1.00
18305;DHT22;9278;52.156;21.048;2022-12-15T12:22:41;-2.90;1.00
18305;DHT22;9278;52.156;21.048;2022-12-15T12:25:12;-3.10;1.00
18305;DHT22;9278;52.156;21.048;2022-12-15T12:27:47;-2.60;1.00
18305;DHT22;9278;52.156;21.048;2022-12-15T12:30:20;-2.50;1.00
18305;DHT22;9278;52.156;21.048;2022-12-15T12:32:54;-2.70;99.90
18305;DHT22;9278;52.156;21.048;2022-12-15T12:35:31;-2.90;1.00
18305;DHT22;9278;52.156;21.048;2022-12-15T12:38:04;-3.10;1.00
18305;DHT22;9278;52.156;21.048;2022-12-15T12:40:45;-2.40;99.90
18305;DHT22;9278;52.156;21.048;2022-12-15T12:43:29;-2.70;1.00
18305;DHT22;9278;52.156;21.048;2022-12-15T12:46:02;-2.90;1.00
18305;DHT22;9278;52.156;21.048;2022-12-15T12:48:38;-3.20;1.00
18305;DHT22;9278;52.156;21.048;2022-12-15T12:51:17;-2.60;1.00
18305;DHT22;9278;52.156;21.048;2022-12-15T12:53:47;-2.70;1.00
18305;DHT22;9278;52.156;21.048;2022-12-15T12:56:38;-2.70;1.00
18305;DHT22;9278;52.156;21.048;2022-12-15T12:59:36;-2.70;1.00
18305;DHT22;9278;52.156;21.048;2022-12-15T13:02:43;-2.70;1.00
18305;DHT22;9278;52.156;21.048;2022-12-15T13:05:24;-2.60;1.00
18305;DHT22;9278;52.156;21.048;2022-12-15T13:07:55;-2.20;1.00
18305;DHT22;9278;52.156;21.048;2022-12-15T13:12:54;-2.20;1.00
18305;DHT22;9278;52.156;21.048;2022-12-15T13:15:38;0.60;1.00
18305;DHT22;9278;52.156;21.048;2022-12-15T13:18:14;-2.40;1.00
18305;DHT22;9278;52.156;21.048;2022-12-15T13:20:45;-2.40;1.00
18305;DHT22;9278;52.156;21.048;2022-12-15T13:23:46;-2.40;1.00
18305;DHT22;9278;52.156;21.048;2022-12-15T13:26:17;-2.60;99.90
18305;DHT22;9278;52.156;21.048;2022-12-15T13:28:55;-2.60;1.00
18305;DHT22;9278;52.156;21.048;2022-12-15T13:31:38;-2.80;1.00
18305;DHT22;9278;52.156;21.048;2022-12-15T13:34:15;-3.30;99.90
18305;DHT22;9278;52.156;21.048;2022-12-15T13:36:50;-2.60;1.00
18305;DHT22;9278;52.156;21.048;2022-12-15T13:39:33;-3.10;1.00
18305;DHT22;9278;52.156;21.048;2022-12-15T13:42:33;-2.80;1.00
18305;DHT22;9278;52.156;21.048;2022-12-15T13:45:46;-2.90;1.00
18305;DHT22;9278;52.156;21.048;2022-12-15T13:48:40;-3.30;1.00
18305;DHT22;9278;52.156;21.048;2022-12-15T13:51:21;-3.20;1.00
18305;DHT22;9278;52.156;21.048;2022-12-15T13:53:55;-3.20;1.00
18305;DHT22;9278;52.156;21.048;2022-12-15T13:56:38;-3.10;1.00
18305;DHT22;9278;52.156;21.048;2022-12-15T13:59:14;-3.20;1.00
18305;DHT22;9278;52.156;21.048;2022-12-15T14:01:50;-3.30;1.00
18305;DHT22;9278;52.156;21.048;2022-12-15T14:04:20;-3.40;1.00
18305;DHT22;9278;52.156;21.048;2022-12-15T14:06:51;-1.60;1.00
18305;DHT22;9278;52.156;21.048;2022-12-15T14:09:24;-3.40;1.00
18305;DHT22;9278;52.156;21.048;2022-12-15T14:14:24;-3.20;1.00
18305;DHT22;9278;52.156;21.048;2022-12-15T14:16:59;-3.30;1.00
18305;DHT22;9278;52.156;21.048;2022-12-15T14:19:40;-3.50;1.00
18305;DHT22;9278;52.156;21.048;2022-12-15T14:22:20;-3.60;1.00
18305;DHT22;9278;52.156;21.048;2022-12-15T14:24:59;-3.40;1.00
18305;DHT22;9278;52.156;21.048;2022-12-15T14:27:30;-3.70;1.00
18305;DHT22;9278;52.156;21.048;2022-12-15T14:30:20;-3.50;1.00
18305;DHT22;9278;52.156;21.048;2022-12-15T14:32:52;-3.90;1.00
18305;DHT22;9278;52.156;21.048;2022-12-15T14:35:28;-3.90;1.00
18305;DHT22;9278;52.156;21.048;2022-12-15T14:37:59;-4.10;1.00
18305;DHT22;9278;52.156;21.048;2022-12-15T14:42:57;-5.40;1.00
18305;DHT22;9278;52.156;21.048;2022-12-15T14:45:27;-3.80;1.00
18305;DHT22;9278;52.156;21.048;2022-12-15T14:48:00;-3.70;99.90
18305;DHT22;9278;52.156;21.048;2022-12-15T14:50:50;-3.90;1.00
18305;DHT22;9278;52.156;21.048;2022-12-15T14:53:20;-4.00;1.00
18305;DHT22;9278;52.156;21.048;2022-12-15T14:58:30;-3.70;99.90
18305;DHT22;9278;52.156;21.048;2022-12-15T15:01:01;-3.50;45.10
18305;DHT22;9278;52.156;21.048;2022-12-15T15:03:34;-4.10;1.00
18305;DHT22;9278;52.156;21.048;2022-12-15T15:06:15;-4.00;1.00
18305;DHT22;9278;52.156;21.048;2022-12-15T15:08:46;-4.20;1.00
18305;DHT22;9278;52.156;21.048;2022-12-15T15:11:24;-4.00;1.00
18305;DHT22;9278;52.156;21.048;2022-12-15T15:13:58;-4.00;1.00
18305;DHT22;9278;52.156;21.048;2022-12-15T15:18:56;-4.10;1.00
18305;DHT22;9278;52.156;21.048;2022-12-15T15:21:30;-3.90;1.00
18305;DHT22;9278;52.156;21.048;2022-12-15T15:24:02;-3.90;1.00
18305;DHT22;9278;52.156;21.048;2022-12-15T15:31:34;-4.20;1.00
18305;DHT22;9278;52.156;21.048;2022-12-15T15:36:39;-3.80;1.00
18305;DHT22;9278;52.156;21.048;2022-12-15T15:39:13;-3.70;1.00
18305;DHT22;9278;52.156;21.048;2022-12-15T15:41:42;-3.60;1.00
18305;DHT22;9278;52.156;21.048;2022-12-15T15:44:12;-3.50;1.00
18305;DHT22;9278;52.156;21.048;2022-12-15T15:46:45;-3.70;1.00
18305;DHT22;9278;52.156;21.048;2022-12-15T15:49:16;-3.80;1.00
18305;DHT22;9278;52.156;21.048;2022-12-15T15:51:46;-3.70;1.00
18305;DHT22;9278;52.156;21.048;2022-12-15T15:54:16;-3.80;1.00
18305;DHT22;9278;52.156;21.048;2022-12-15T15:56:45;-4.00;1.00
18305;DHT22;9278;52.156;21.048;2022-12-15T15:59:15;-3.80;1.00
18305;DHT22;9278;52.156;21.048;2022-12-15T16:01:45;-3.80;1.00
18305;DHT22;9278;52.156;21.048;2022-12-15T16:04:15;-3.40;1.00
18305;DHT22;9278;52.156;21.048;2022-12-15T16:06:43;-3.40;1.00
18305;DHT22;9278;52.156;21.048;2022-12-15T16:09:15;-3.10;1.00
18305;DHT22;9278;52.156;21.048;2022-12-15T16:11:44;-3.30;1.00
18305;DHT22;9278;52.156;21.048;2022-12-15T16:14:15;-3.10;1.00
18305;DHT22;9278;52.156;21.048;2022-12-15T16:16:43;-3.20;1.00
18305;DHT22;9278;52.156;21.048;2022-12-15T16:19:12;-3.10;1.00
18305;DHT22;9278;52.156;21.048;2022-12-15T16:21:41;-3.10;1.00
18305;DHT22;9278;52.156;21.048;2022-12-15T16:24:13;-2.90;1.00
18305;DHT22;9278;52.156;21.048;2022-12-15T16:26:47;-3.10;1.00
18305;DHT22;9278;52.156;21.048;2022-12-15T16:29:17;-3.50;1.00
18305;DHT22;9278;52.156;21.048;2022-12-15T16:31:46;-3.50;1.00
18305;DHT22;9278;52.156;21.048;2022-12-15T16:34:15;-3.30;1.00
18305;DHT22;9278;52.156;21.048;2022-12-15T16:36:44;-3.50;1.00
18305;DHT22;9278;52.156;21.048;2022-12-15T16:39:23;-3.40;1.00
18305;DHT22;9278;52.156;21.048;2022-12-15T16:41:54;-3.40;1.00
18305;DHT22;9278;52.156;21.048;2022-12-15T16:44:24;-3.30;1.00
18305;DHT22;9278;52.156;21.048;2022-12-15T16:46:52;-3.00;1.00
18305;DHT22;9278;52.156;21.048;2022-12-15T16:49:20;-3.00;1.00
18305;DHT22;9278;52.156;21.048;2022-12-15T16:51:50;-2.70;1.00
18305;DHT22;9278;52.156;21.048;2022-12-15T16:54:22;-2.70;1.00
18305;DHT22;9278;52.156;21.048;2022-12-15T16:56:52;-2.60;1.00
18305;DHT22;9278;52.156;21.048;2022-12-15T16:59:23;-2.60;1.00
18305;DHT22;9278;52.156;21.048;2022-12-15T17:02:10;-2.90;1.00
18305;DHT22;9278;52.156;21.048;2022-12-15T17:04:47;-2.90;1.00
18305;DHT22;9278;52.156;21.048;2022-12-15T17:09:47;-2.70;1.00
18305;DHT22;9278;52.156;21.048;2022-12-15T17:12:18;-2.60;1.00
18305;DHT22;9278;52.156;21.048;2022-12-15T17:14:46;-2.30;1.00
18305;DHT22;9278;52.156;21.048;2022-12-15T17:17:16;-2.30;1.00
18305;DHT22;9278;52.156;21.048;2022-12-15T17:19:45;-2.30;1.00
18305;DHT22;9278;52.156;21.048;2022-12-15T17:22:35;-2.40;1.00
18305;DHT22;9278;52.156;21.048;2022-12-15T17:25:04;-2.40;1.00
18305;DHT22;9278;52.156;21.048;2022-12-15T17:27:34;-2.20;1.00
18305;DHT22;9278;52.156;21.048;2022-12-15T17:30:03;-1.70;1.00
18305;DHT22;9278;52.156;21.048;2022-12-15T17:32:32;-2.20;1.00
18305;DHT22;9278;52.156;21.048;2022-12-15T17:40:02;-2.40;1.00
18305;DHT22;9278;52.156;21.048;2022-12-15T17:42:30;-2.40;1.00
18305;DHT22;9278;52.156;21.048;2022-12-15T17:45:00;-2.60;1.00
18305;DHT22;9278;52.156;21.048;2022-12-15T17:47:28;-2.10;1.00
18305;DHT22;9278;52.156;21.048;2022-12-15T17:49:57;-2.60;1.00
18305;DHT22;9278;52.156;21.048;2022-12-15T17:52:27;-2.20;1.00
18305;DHT22;9278;52.156;21.048;2022-12-15T17:54:56;-2.40;1.00
18305;DHT22;9278;52.156;21.048;2022-12-15T17:59:53;-2.20;1.00
18305;DHT22;9278;52.156;21.048;2022-12-15T18:02:23;-2.20;1.00
18305;DHT22;9278;52.156;21.048;2022-12-15T18:04:51;-2.20;1.00
18305;DHT22;9278;52.156;21.048;2022-12-15T18:07:22;-2.30;1.00
18305;DHT22;9278;52.156;21.048;2022-12-15T18:09:51;-1.90;99.90
18305;DHT22;9278;52.156;21.048;2022-12-15T18:12:21;-2.20;1.00
18305;DHT22;9278;52.156;21.048;2022-12-15T18:17:20;-2.30;1.00
18305;DHT22;9278;52.156;21.048;2022-12-15T18:19:49;-2.60;71.30
18305;DHT22;9278;52.156;21.048;2022-12-15T18:22:20;-2.60;90.20
18305;DHT22;9278;52.156;21.048;2022-12-15T18:24:50;-2.50;1.00
18305;DHT22;9278;52.156;21.048;2022-12-15T18:27:21;-2.40;1.00
18305;DHT22;9278;52.156;21.048;2022-12-15T18:32:21;0.90;1.00
18305;DHT22;9278;52.156;21.048;2022-12-15T18:34:54;-2.50;1.00
18305;DHT22;9278;52.156;21.048;2022-12-15T18:37:23;-2.50;1.00
18305;DHT22;9278;52.156;21.048;2022-12-15T18:39:51;-2.30;1.00
18305;DHT22;9278;52.156;21.048;2022-12-15T18:42:28;-2.40;1.00
18305;DHT22;9278;52.156;21.048;2022-12-15T18:44:57;-2.20;1.00
18305;DHT22;9278;52.156;21.048;2022-12-15T18:47:26;-2.20;1.00
18305;DHT22;9278;52.156;21.048;2022-12-15T18:49:57;-2.10;1.00
18305;DHT22;9278;52.156;21.048;2022-12-15T18:52:26;-2.20;1.00
18305;DHT22;9278;52.156;21.048;2022-12-15T18:55:00;-2.20;1.00
18305;DHT22;9278;52.156;21.048;2022-12-15T18:57:30;-2.30;1.00
18305;DHT22;9278;52.156;21.048;2022-12-15T19:00:00;-1.30;1.00
18305;DHT22;9278;52.156;21.048;2022-12-15T19:02:33;-2.30;1.00
18305;DHT22;9278;52.156;21.048;2022-12-15T19:05:04;-2.10;1.00
18305;DHT22;9278;52.156;21.048;2022-12-15T19:07:34;-2.10;1.00
18305;DHT22;9278;52.156;21.048;2022-12-15T19:10:03;-2.20;1.00
18305;DHT22;9278;52.156;21.048;2022-12-15T19:12:31;-2.00;1.00
18305;DHT22;9278;52.156;21.048;2022-12-15T19:15:00;-2.00;1.00
18305;DHT22;9278;52.156;21.048;2022-12-15T19:17:28;-1.30;1.00
18305;DHT22;9278;52.156;21.048;2022-12-15T19:20:17;-1.40;1.00
18305;DHT22;9278;52.156;21.048;2022-12-15T19:23:04;-2.00;1.00
18305;DHT22;9278;52.156;21.048;2022-12-15T19:25:33;0.10;1.00
18305;DHT22;9278;52.156;21.048;2022-12-15T19:28:02;-1.40;1.00
18305;DHT22;9278;52.156;21.048;2022-12-15T19:30:32;-2.10;1.00
18305;DHT22;9278;52.156;21.048;2022-12-15T19:33:07;-2.10;1.00
18305;DHT22;9278;52.156;21.048;2022-12-15T19:35:38;-1.60;1.00
18305;DHT22;9278;52.156;21.048;2022-12-15T19:38:07;-1.70;1.00
18305;DHT22;9278;52.156;21.048;2022-12-15T19:43:10;-2.10;99.90
18305;DHT22;9278;52.156;21.048;2022-12-15T19:45:40;-1.30;1.00
18305;DHT22;9278;52.156;21.048;2022-12-15T19:48:09;-2.00;1.00
18305;DHT22;9278;52.156;21.048;2022-12-15T19:50:40;-2.10;1.00
18305;DHT22;9278;52.156;21.048;2022-12-15T19:53:13;-2.30;99.90
18305;DHT22;9278;52.156;21.048;2022-12-15T19:55:44;-2.20;1.00
18305;DHT22;9278;52.156;21.048;2022-12-15T19:58:26;-2.20;1.00
18305;DHT22;9278;52.156;21.048;2022-12-15T20:00:56;-2.10;1.00
18305;DHT22;9278;52.156;21.048;2022-12-15T20:03:26;-1.90;1.00
18305;DHT22;9278;52.156;21.048;2022-12-15T20:05:57;-1.60;1.00
18305;DHT22;9278;52.156;21.048;2022-12-15T20:08:28;-1.90;99.90
18305;DHT22;9278;52.156;21.048;2022-12-15T20:10:59;-1.90;99.90
18305;DHT22;9278;52.156;21.048;2022-12-15T20:13:27;-2.10;61.20
18305;DHT22;9278;52.156;21.048;2022-12-15T20:15:56;-2.00;1.00
18305;DHT22;9278;52.156;21.048;2022-12-15T20:18:25;-1.90;1.00
18305;DHT22;9278;52.156;21.048;2022-12-15T20:20:53;-1.70;1.00
18305;DHT22;9278;52.156;21.048;2022-12-15T20:23:24;-1.80;99.90
18305;DHT22;9278;52.156;21.048;2022-12-15T20:25:53;-2.00;99.90
18305;DHT22;9278;52.156;21.048;2022-12-15T20:28:24;-2.30;99.90
18305;DHT22;9278;52.156;21.048;2022-12-15T20:30:54;-2.60;99.90
18305;DHT22;9278;52.156;21.048;2022-12-15T20:33:23;-2.80;99.90
18305;DHT22;9278;52.156;21.048;2022-12-15T20:35:51;-2.90;1.00
18305;DHT22;9278;52.156;21.048;2022-12-15T20:38:28;-2.80;1.00
18305;DHT22;9278;52.156;21.048;2022-12-15T20:40:58;-2.80;1.00
18305;DHT22;9278;52.156;21.048;2022-12-15T20:43:28;-2.80;1.00
18305;DHT22;9278;52.156;21.048;2022-12-15T20:46:02;-3.00;1.00
18305;DHT22;9278;52.156;21.048;2022-12-15T20:48:31;-3.10;1.00
18305;DHT22;9278;52.156;21.048;2022-12-15T20:51:00;-3.10;1.00
18305;DHT22;9278;52.156;21.048;2022-12-15T20:53:37;-2.60;1.00
18305;DHT22;9278;52.156;21.048;2022-12-15T20:56:06;-3.30;1.00
18305;DHT22;9278;52.156;21.048;2022-12-15T20:58:35;-3.20;1.00
18305;DHT22;9278;52.156;21.048;2022-12-15T21:01:16;-3.30;1.00
18305;DHT22;9278;52.156;21.048;2022-12-15T21:03:49;-2.50;1.00
18305;DHT22;9278;52.156;21.048;2022-12-15T21:12:16;-3.40;1.00
18305;DHT22;9278;52.156;21.048;2022-12-15T21:17:22;-3.30;1.00
18305;DHT22;9278;52.156;21.048;2022-12-15T21:19:51;-3.10;1.00
18305;DHT22;9278;52.156;21.048;2022-12-15T21:22:22;-3.00;1.00
18305;DHT22;9278;52.156;21.048;2022-12-15T21:24:53;-3.20;1.00
18305;DHT22;9278;52.156;21.048;2022-12-15T21:27:23;-3.20;1.00
18305;DHT22;9278;52.156;21.048;2022-12-15T21:29:52;-3.40;1.00
18305;DHT22;9278;52.156;21.048;2022-12-15T21:35:32;-3.60;1.00
18305;DHT22;9278;52.156;21.048;2022-12-15T21:38:27;-3.50;1.00
18305;DHT22;9278;52.156;21.048;2022-12-15T21:41:00;-3.40;1.00
18305;DHT22;9278;52.156;21.048;2022-12-15T21:43:33;-3.50;1.00
18305;DHT22;9278;52.156;21.048;2022-12-15T21:46:11;-3.40;1.00
18305;DHT22;9278;52.156;21.048;2022-12-15T21:48:40;-3.30;1.00